Niobe, New York
Current Conditions -  °F | °C
As of 9:55 PM on Sunday 23 Nov 2014 (Local Time) from KJHW Reporting Station
Scattered Clouds Scattered Clouds  
Wind Chill: 44°   Ceiling: Unl
Heat Index: 48°   Visibility: 10mi
Dew Point: 34°   Wind: 10mph
Humidity: 57%   Direction: 150°SSE
Pressure: 29.69"   Gusts: 18mph
Location:  42.01°N, 79.45°W
Report Text: KJHW 240255Z AUTO 15009G16KT 10SM SCT120 09/01 A2969 RMK AO1 57041
Loading
Personal Weather Stations






























Interactive Weather Map New forecast layout! Learn more

10-Day Weather Forecast

Advertisements
Track Severe Weather on mobile